Time;durP1;ratioP1;P1;durP2;ratioP2;P2;SDS_P1;SDS_P2;PMS_P1;PMS_P2;Temp;Humidity;BMP_temperature;BMP_pressure;BME280_temperature;BME280_humidity;BME280_pressure;Samples;Min_cycle;Max_cycle;Signal;HPM_P1;HPM_P2
2022/08/27 00:01:28;;;;;;;8.90;3.13;;;;;;;18.09;100.00;101365.28;5058171;28;20033;-78
2022/08/27 00:04:01;;;;;;;12.50;2.80;;;;;;;18.11;100.00;101363.22;5061862;28;20073;-79
2022/08/27 00:06:32;;;;;;;11.48;2.75;;;;;;;18.14;100.00;101368.44;5066969;28;20039;-79
2022/08/27 00:08:57;;;;;;;14.65;3.35;;;;;;;18.09;100.00;101365.28;5023867;28;20558;-78
2022/08/27 00:11:26;;;;;;;10.38;2.63;;;;;;;18.11;100.00;101366.84;5068304;28;20062;-78
2022/08/27 00:13:55;;;;;;;8.43;2.88;;;;;;;18.09;100.00;101363.38;5071729;28;20032;-78
2022/08/27 00:16:23;;;;;;;13.77;3.10;;;;;;;18.05;100.00;101355.53;5063680;28;20044;-78
2022/08/27 00:18:49;;;;;;;10.73;2.78;;;;;;;18.05;100.00;101350.84;5064074;28;20036;-78
2022/08/27 00:21:17;;;;;;;14.93;2.90;;;;;;;18.07;100.00;101354.38;5048996;28;20032;-78
2022/08/27 00:23:45;;;;;;;17.33;3.42;;;;;;;18.07;100.00;101359.00;5054904;28;20055;-77
2022/08/27 00:26:20;;;;;;;10.93;2.83;;;;;;;18.02;100.00;101348.44;5049259;28;20029;-79
2022/08/27 00:28:51;;;;;;;12.18;2.92;;;;;;;18.03;100.00;101352.06;5066271;28;20027;-78
2022/08/27 00:31:25;;;;;;;14.13;2.17;;;;;;;18.09;100.00;101356.97;5054048;28;20048;-78
2022/08/27 00:33:52;;;;;;;11.60;3.10;;;;;;;18.02;100.00;101353.97;5088967;28;20036;-78
2022/08/27 00:36:27;;;;;;;16.77;3.15;;;;;;;18.01;100.00;101352.22;5071060;28;20041;-78
2022/08/27 00:38:54;;;;;;;14.52;3.28;;;;;;;18.03;100.00;101355.69;5074967;28;20037;-79
2022/08/27 00:41:23;;;;;;;17.80;3.00;;;;;;;18.05;100.00;101347.22;5061709;28;20399;-78
2022/08/27 00:43:50;;;;;;;13.70;3.17;;;;;;;18.03;100.00;101358.47;5058426;28;20033;-78
2022/08/27 00:46:37;;;;;;;12.52;3.00;;;;;;;18.07;100.00;101354.38;5082687;28;20043;-78
2022/08/27 00:49:25;;;;;;;10.13;2.90;;;;;;;18.02;100.00;101353.06;5086486;28;20025;-78
2022/08/27 00:52:12;;;;;;;12.93;2.70;;;;;;;18.02;100.00;101359.50;5061041;28;20037;-78
2022/08/27 00:54:38;;;;;;;18.30;3.13;;;;;;;18.05;100.00;101353.63;5068023;28;20089;-78
2022/08/27 00:57:07;;;;;;;14.55;3.10;;;;;;;18.03;100.00;101361.22;5066404;28;20617;-79
2022/08/27 00:59:38;;;;;;;22.48;3.33;;;;;;;17.94;100.00;101351.13;5049040;28;20069;-79
2022/08/27 01:02:40;;;;;;;11.50;2.55;;;;;;;17.95;100.00;101350.94;5063821;28;20039;-79
2022/08/27 01:05:05;;;;;;;18.63;3.13;;;;;;;17.92;100.00;101350.38;5070081;28;20052;-79
2022/08/27 01:07:42;;;;;;;8.70;2.65;;;;;;;17.92;100.00;101351.28;5064300;28;20072;-79
2022/08/27 01:10:20;;;;;;;17.60;3.42;;;;;;;17.94;100.00;101351.97;5068517;28;20033;-79
2022/08/27 01:12:47;;;;;;;8.52;2.47;;;;;;;17.96;100.00;101349.06;5071186;28;20537;-79
2022/08/27 01:15:15;;;;;;;14.52;3.00;;;;;;;17.97;100.00;101345.22;5070661;28;20427;-79
2022/08/27 01:17:43;;;;;;;13.60;2.92;;;;;;;17.89;100.00;101350.69;5069969;28;20029;-79
2022/08/27 01:20:26;;;;;;;14.80;3.03;;;;;;;17.91;100.00;101348.66;5080093;28;20036;-78
2022/08/27 01:22:54;;;;;;;11.23;3.10;;;;;;;17.86;100.00;101339.91;5068033;28;20032;-79
2022/08/27 01:25:24;;;;;;;11.50;2.45;;;;;;;17.83;100.00;101338.31;5064195;28;20033;-79
2022/08/27 01:27:56;;;;;;;11.75;3.17;;;;;;;17.87;100.00;101339.75;5076775;28;20036;-77
2022/08/27 01:30:27;;;;;;;12.05;3.05;;;;;;;17.92;100.00;101339.28;5076087;28;20088;-78
2022/08/27 01:32:53;;;;;;;11.77;3.33;;;;;;;17.83;100.00;101339.19;5081984;28;20042;-78
2022/08/27 01:35:24;;;;;;;12.70;2.90;;;;;;;17.77;100.00;101331.53;5058057;28;20079;-78
2022/08/27 01:37:57;;;;;;;10.48;2.70;;;;;;;17.75;100.00;101335.47;5051230;28;20036;-77
2022/08/27 01:40:23;;;;;;;9.50;2.75;;;;;;;17.73;100.00;101338.38;5047784;28;20068;-78
2022/08/27 01:42:52;;;;;;;13.05;3.17;;;;;;;17.76;100.00;101340.00;5086074;28;20051;-78
2022/08/27 01:45:28;;;;;;;8.55;2.75;;;;;;;17.69;100.00;101342.47;5076103;28;20032;-78
2022/08/27 01:47:54;;;;;;;14.07;3.00;;;;;;;17.61;100.00;101339.63;5068461;28;20068;-78
2022/08/27 01:50:24;;;;;;;17.98;3.17;;;;;;;17.62;100.00;101344.16;5067664;28;20386;-78
2022/08/27 01:53:05;;;;;;;10.32;3.55;;;;;;;17.56;100.00;101317.97;5064627;28;20024;-78
2022/08/27 01:55:30;;;;;;;13.45;3.65;;;;;;;17.64;100.00;101334.66;5078873;28;20029;-79
2022/08/27 01:57:57;;;;;;;10.13;2.90;;;;;;;17.60;100.00;101332.38;5047428;28;20167;-78
2022/08/27 02:00:35;;;;;;;11.50;3.03;;;;;;;17.57;100.00;101327.13;5053843;28;20036;-78
2022/08/27 02:03:05;;;;;;;14.93;3.50;;;;;;;17.57;100.00;101322.44;5077992;28;20054;-78
2022/08/27 02:05:38;;;;;;;13.65;3.70;;;;;;;17.59;100.00;101325.06;5096424;28;20063;-78
2022/08/27 02:08:05;;;;;;;16.17;4.07;;;;;;;17.60;100.00;101321.28;5070865;28;20040;-78
2022/08/27 02:10:39;;;;;;;14.27;3.85;;;;;;;17.55;100.00;101323.66;5080018;28;20040;-79
2022/08/27 02:13:08;;;;;;;12.50;3.60;;;;;;;17.62;100.00;101317.31;5072386;28;20025;-79
2022/08/27 02:15:35;;;;;;;18.65;4.03;;;;;;;17.62;100.00;101325.63;5076569;28;20032;-79
2022/08/27 02:18:05;;;;;;;17.60;3.75;;;;;;;17.55;100.00;101318.97;5074471;28;20059;-78
2022/08/27 02:20:36;;;;;;;12.27;3.70;;;;;;;17.55;100.00;101323.66;5052850;28;20033;-78
2022/08/27 02:23:05;;;;;;;12.77;3.20;;;;;;;17.60;100.00;101324.91;5066624;28;20047;-79
2022/08/27 02:25:39;;;;;;;17.80;3.88;;;;;;;17.50;100.00;101324.13;5060583;28;20123;-77
2022/08/27 02:28:08;;;;;;;17.98;3.92;;;;;;;17.43;100.00;101320.22;5061782;28;20037;-77
2022/08/27 02:30:44;;;;;;;19.73;3.83;;;;;;;17.50;100.00;101321.34;5074007;28;20140;-78
2022/08/27 02:33:14;;;;;;;22.23;4.00;;;;;;;17.45;100.00;101320.94;5063989;28;20055;-78
2022/08/27 02:35:42;;;;;;;14.43;4.20;;;;;;;17.44;100.00;101321.97;5040950;28;20129;-78
2022/08/27 02:38:11;;;;;;;14.07;3.83;;;;;;;17.42;100.00;101341.50;5061627;28;20090;-78
2022/08/27 02:40:41;;;;;;;13.48;4.32;;;;;;;17.42;100.00;101324.88;5068476;28;20078;-77
2022/08/27 02:43:06;;;;;;;12.57;3.80;;;;;;;17.39;100.00;101321.56;5063158;28;20128;-77
2022/08/27 02:45:36;;;;;;;23.15;4.35;;;;;;;17.32;100.00;101323.22;5065369;28;20029;-78
2022/08/27 02:48:03;;;;;;;15.43;4.35;;;;;;;17.37;100.00;101316.19;5066981;28;20021;-77
2022/08/27 02:50:33;;;;;;;21.08;4.13;;;;;;;17.23;100.00;101319.44;5060295;28;20033;-78
2022/08/27 02:53:04;;;;;;;13.27;4.50;;;;;;;17.20;100.00;101319.75;5087706;28;20083;-77
2022/08/27 02:55:34;;;;;;;22.05;4.20;;;;;;;17.22;100.00;101317.72;5081072;28;20112;-79
2022/08/27 02:58:05;;;;;;;19.52;5.88;;;;;;;17.13;100.00;101313.97;5037534;28;20057;-78
2022/08/27 03:00:31;;;;;;;17.67;4.50;;;;;;;17.16;100.00;101310.03;5044931;28;20115;-77
2022/08/27 03:02:56;;;;;;;13.93;4.45;;;;;;;17.14;100.00;101312.09;5062257;28;20070;-78
2022/08/27 03:05:28;;;;;;;21.70;4.70;;;;;;;17.17;100.00;101314.56;5064186;28;20028;-77
2022/08/27 03:08:05;;;;;;;17.95;4.97;;;;;;;17.09;100.00;101323.63;5073669;28;20050;-78
2022/08/27 03:10:31;;;;;;;21.15;5.22;;;;;;;16.96;100.00;101312.88;5071843;28;20037;-78
2022/08/27 03:13:01;;;;;;;23.63;4.65;;;;;;;16.95;100.00;101311.13;5080059;28;20028;-78
2022/08/27 03:15:27;;;;;;;13.10;4.55;;;;;;;16.97;100.00;101320.19;5051509;28;20043;-78
2022/08/27 03:20:43;;;;;;;20.42;5.63;;;;;;;16.87;100.00;101308.25;5060466;28;20036;-79
2022/08/27 03:23:13;;;;;;;15.85;4.40;;;;;;;16.91;100.00;101309.72;5051084;28;20445;-78
2022/08/27 03:25:42;;;;;;;17.17;4.88;;;;;;;16.80;100.00;101309.88;5072342;28;20038;-77
2022/08/27 03:28:09;;;;;;;16.13;5.55;;;;;;;16.78;100.00;101315.53;5068080;28;20048;-78
2022/08/27 03:30:34;;;;;;;23.80;5.97;;;;;;;16.72;100.00;101317.03;5071749;28;20539;-78
2022/08/27 03:33:07;;;;;;;22.70;5.65;;;;;;;16.81;100.00;101317.16;5061418;28;20044;-77
2022/08/27 03:35:33;;;;;;;20.23;5.70;;;;;;;16.79;100.00;101310.88;5060683;28;20067;-78
2022/08/27 03:37:59;;;;;;;25.50;5.85;;;;;;;16.73;100.00;101327.06;5066364;28;20065;-77
2022/08/27 03:40:27;;;;;;;17.13;5.40;;;;;;;16.63;100.00;101323.44;5069552;28;20036;-78
2022/08/27 03:42:52;;;;;;;15.25;5.28;;;;;;;16.63;100.00;101317.06;5047869;28;20037;-79
2022/08/27 03:45:26;;;;;;;19.30;5.28;;;;;;;16.65;100.00;101315.00;5068956;28;20044;-78
2022/08/27 03:47:56;;;;;;;17.08;5.38;;;;;;;16.69;100.00;101317.34;5056091;28;20092;-78
2022/08/27 03:50:25;;;;;;;22.08;5.88;;;;;;;16.68;100.00;101325.78;5065848;28;20036;-77
2022/08/27 03:52:50;;;;;;;15.27;5.65;;;;;;;16.59;100.00;101319.22;5061544;28;20044;-78
2022/08/27 03:55:16;;;;;;;13.82;5.25;;;;;;;16.61;100.00;101324.59;5073505;28;20032;-77
2022/08/27 03:57:42;;;;;;;17.50;6.35;;;;;;;16.50;100.00;101321.00;5063374;28;20036;-77
2022/08/27 04:00:11;;;;;;;20.70;6.55;;;;;;;16.49;100.00;101316.47;5057315;28;20380;-78
2022/08/27 04:02:42;;;;;;;19.40;6.70;;;;;;;16.62;100.00;101324.47;5057149;28;20025;-77
2022/08/27 04:05:11;;;;;;;22.85;5.70;;;;;;;16.56;100.00;101327.84;5070300;28;20044;-78
2022/08/27 04:07:41;;;;;;;14.68;5.70;;;;;;;16.54;100.00;101324.34;5064292;28;20078;-77
2022/08/27 04:10:15;;;;;;;16.90;5.65;;;;;;;16.49;100.00;101329.44;5043727;28;20036;-78
2022/08/27 04:12:41;;;;;;;20.45;6.25;;;;;;;16.48;100.00;101324.97;5056034;28;20040;-78
2022/08/27 04:15:09;;;;;;;23.85;6.30;;;;;;;16.43;100.00;101328.16;5046822;28;20393;-78
2022/08/27 04:17:44;;;;;;;15.70;5.57;;;;;;;16.41;100.00;101321.03;5055365;28;20029;-77
2022/08/27 04:20:19;;;;;;;19.02;6.05;;;;;;;16.43;100.00;101317.09;5062446;28;20410;-79
2022/08/27 04:22:47;;;;;;;23.23;6.20;;;;;;;16.47;100.00;101323.19;5062789;28;20037;-79
2022/08/27 04:25:15;;;;;;;20.60;5.88;;;;;;;16.38;100.00;101313.03;5073220;28;20024;-79
2022/08/27 04:27:47;;;;;;;28.92;6.30;;;;;;;16.48;100.00;101320.28;5062901;28;20081;-78
2022/08/27 04:30:14;;;;;;;25.17;6.85;;;;;;;16.44;100.00;101318.81;5042719;28;20048;-78
2022/08/27 04:32:46;;;;;;;22.85;6.47;;;;;;;16.33;100.00;101319.88;5069171;28;20058;-78
2022/08/27 04:35:15;;;;;;;;;;;;;;;16.45;100.00;101326.13;5044616;28;20060;-79
2022/08/27 04:37:42;;;;;;;27.50;6.80;;;;;;;16.49;100.00;101330.31;5081546;28;19916;-78
2022/08/27 04:40:14;;;;;;;;;;;;;;;16.42;100.00;101334.69;5063379;28;20032;-78
2022/08/27 04:42:40;;;;;;;34.80;7.30;;;;;;;16.42;100.00;101339.38;5061403;28;19980;-77
2022/08/27 04:45:15;;;;;;;19.42;7.10;;;;;;;16.37;100.00;101337.03;5079947;28;20037;-79
2022/08/27 04:47:40;;;;;;;20.42;6.47;;;;;;;16.44;100.00;101338.19;5072276;28;20025;-79
2022/08/27 04:50:12;;;;;;;21.83;7.00;;;;;;;16.48;100.00;101341.53;5052236;28;20033;-78
2022/08/27 04:52:51;;;;;;;23.30;7.07;;;;;;;16.53;100.00;101339.19;5052987;28;20122;-77
2022/08/27 04:55:19;;;;;;;26.65;6.75;;;;;;;16.52;100.00;101345.75;5055952;28;20032;-77
2022/08/27 04:57:45;;;;;;;20.60;6.80;;;;;;;16.49;100.00;101335.84;5061536;28;20044;-79
2022/08/27 05:00:18;;;;;;;;;;;;;;;16.50;100.00;101342.25;5055445;28;20417;-77
2022/08/27 05:02:44;;;;;;;35.20;7.63;;;;;;;16.50;100.00;101342.25;5061444;28;20007;-76
2022/08/27 05:05:16;;;;;;;24.97;6.73;;;;;;;16.56;100.00;101347.19;5055633;28;20044;-79
2022/08/27 05:07:42;;;;;;;21.80;6.85;;;;;;;16.53;100.00;101347.50;5065821;28;20021;-77
2022/08/27 05:10:08;;;;;;;38.80;7.90;;;;;;;16.54;100.00;101343.69;5059396;28;20047;-77
2022/08/27 05:12:43;;;;;;;29.73;6.90;;;;;;;16.53;100.00;101340.06;5037308;28;20090;-78
2022/08/27 05:15:10;;;;;;;22.33;6.97;;;;;;;16.51;100.00;101352.28;5057455;28;20434;-78
2022/08/27 05:17:36;;;;;;;32.58;7.38;;;;;;;16.55;100.00;101350.97;5072946;28;20053;-77
2022/08/27 05:20:10;;;;;;;24.63;7.15;;;;;;;16.48;100.00;101339.63;5044324;28;20056;-78
2022/08/27 05:22:36;;;;;;;28.35;7.25;;;;;;;16.59;100.00;101355.16;5028966;28;20066;-78
2022/08/27 05:25:05;;;;;;;21.92;7.07;;;;;;;16.64;100.00;101354.72;5031422;28;20036;-77
2022/08/27 05:27:32;;;;;;;27.15;6.60;;;;;;;16.48;100.00;101356.22;5064229;28;20029;-78
2022/08/27 05:29:58;;;;;;;24.65;7.03;;;;;;;16.53;100.00;101356.66;5055419;28;20040;-78
2022/08/27 05:32:24;;;;;;;21.02;7.20;;;;;;;16.60;100.00;101362.47;5043094;28;20102;-77
2022/08/27 05:34:55;;;;;;;20.27;6.63;;;;;;;16.58;100.00;101356.22;5056394;28;20538;-78
2022/08/27 05:37:20;;;;;;;37.53;7.75;;;;;;;16.59;100.00;101349.63;5015185;28;20042;-77
2022/08/27 05:39:51;;;;;;;37.10;7.80;;;;;;;16.59;100.00;101346.88;5053038;28;20029;-77
2022/08/27 05:42:18;;;;;;;31.30;7.30;;;;;;;16.59;100.00;101359.84;5049511;28;20041;-77
2022/08/27 05:44:44;;;;;;;25.75;7.20;;;;;;;16.63;100.00;101359.41;5030971;28;20040;-77
2022/08/27 05:47:19;;;;;;;24.20;6.75;;;;;;;16.63;100.00;101361.31;5038886;28;20513;-79
2022/08/27 05:49:46;;;;;;;24.63;7.03;;;;;;;16.64;100.00;101363.03;5040980;28;20579;-77
2022/08/27 05:52:13;;;;;;;25.17;7.78;;;;;;;16.67;100.00;101360.81;5043444;28;20072;-78
2022/08/27 05:54:40;;;;;;;28.27;7.03;;;;;;;16.68;100.00;101359.81;5074195;28;20369;-77
2022/08/27 05:57:14;;;;;;;31.15;7.47;;;;;;;16.68;100.00;101358.97;5073420;28;20496;-77
2022/08/27 06:02:36;;;;;;;27.42;7.75;;;;;;;16.65;100.00;101359.25;5055612;28;20499;-78
2022/08/27 06:05:10;;;;;;;31.13;8.45;;;;;;;16.72;100.00;101352.97;5056913;28;20129;-77
2022/08/27 06:07:43;;;;;;;36.92;7.57;;;;;;;16.75;100.00;101354.56;5073299;28;20048;-79
2022/08/27 06:10:19;;;;;;;22.60;7.78;;;;;;;16.77;100.00;101357.19;5068814;28;20162;-78
2022/08/27 06:12:45;;;;;;;34.88;8.63;;;;;;;16.86;100.00;101357.19;5035845;28;20032;-77
2022/08/27 06:15:20;;;;;;;31.63;8.85;;;;;;;16.89;100.00;101353.25;5077552;28;20070;-77
2022/08/27 06:17:46;;;;;;;25.45;8.15;;;;;;;16.87;100.00;101367.25;5056017;28;20037;-77
2022/08/27 06:20:19;;;;;;;35.95;8.52;;;;;;;16.80;100.00;101366.03;5041683;28;20045;-77
2022/08/27 06:22:49;;;;;;;29.23;8.57;;;;;;;16.87;100.00;101366.34;5054963;28;20033;-76
2022/08/27 06:25:15;;;;;;;32.00;7.82;;;;;;;16.99;100.00;101367.06;5029802;28;20481;-75
2022/08/27 06:27:43;;;;;;;39.13;8.38;;;;;;;16.90;100.00;101369.72;5064822;28;20025;-77
2022/08/27 06:30:12;;;;;;;27.02;8.05;;;;;;;16.92;100.00;101364.00;5044391;28;20400;-76
2022/08/27 06:32:41;;;;;;;28.67;8.65;;;;;;;16.88;100.00;101362.56;5057487;28;20041;-77
2022/08/27 06:35:07;;;;;;;33.97;9.30;;;;;;;16.90;100.00;101371.56;5056276;28;20051;-77
2022/08/27 06:37:35;;;;;;;34.85;8.57;;;;;;;16.90;100.00;101363.28;5059268;28;20033;-77
2022/08/27 06:40:00;;;;;;;31.08;9.02;;;;;;;17.01;100.00;101368.63;5058361;28;20055;-76
2022/08/27 06:42:31;;;;;;;28.00;8.27;;;;;;;17.02;100.00;101378.69;5044402;28;20047;-76
2022/08/27 06:44:57;;;;;;;32.60;9.50;;;;;;;17.01;100.00;101376.94;5054466;28;20021;-77
2022/08/27 06:47:25;;;;;;;28.73;9.70;;;;;;;17.06;100.00;101390.31;5062265;28;20033;-76
2022/08/27 06:49:51;;;;;;;29.38;9.10;;;;;;;17.07;100.00;101370.81;5054421;28;20047;-76
2022/08/27 06:52:22;;;;;;;22.20;8.30;;;;;;;17.02;100.00;101367.63;5054586;28;20060;-77
2022/08/27 06:54:49;;;;;;;31.50;9.15;;;;;;;17.06;100.00;101368.19;5080203;28;20047;-77
2022/08/27 06:57:15;;;;;;;31.27;9.27;;;;;;;17.02;100.00;101367.63;5065733;28;20037;-77
2022/08/27 06:59:41;;;;;;;43.00;9.32;;;;;;;17.05;100.00;101375.63;5075716;28;20115;-77
2022/08/27 07:02:11;;;;;;;26.92;8.63;;;;;;;17.08;100.00;101371.66;5070281;28;20020;-78
2022/08/27 07:04:41;;;;;;;24.48;8.95;;;;;;;17.14;100.00;101375.75;5054840;28;20063;-77
2022/08/27 07:07:15;;;;;;;34.60;9.75;;;;;;;17.15;100.00;101364.53;5068926;28;20452;-77
2022/08/27 07:09:44;;;;;;;25.05;9.77;;;;;;;17.18;100.00;101371.63;5054387;28;20476;-76
2022/08/27 07:12:14;;;;;;;27.80;9.27;;;;;;;17.22;100.00;101370.31;5073446;28;20064;-77
2022/08/27 07:14:40;;;;;;;26.98;9.82;;;;;;;17.19;100.00;101374.25;5046307;28;20473;-77
2022/08/27 07:17:08;;;;;;;31.20;8.50;;;;;;;17.21;100.00;101372.19;5055831;28;20029;-78
2022/08/27 07:19:39;;;;;;;32.75;8.25;;;;;;;17.28;100.00;101372.44;5056692;28;20048;-77
2022/08/27 07:22:14;;;;;;;25.65;8.85;;;;;;;17.23;100.00;101372.03;5044081;28;20064;-76
2022/08/27 07:24:44;;;;;;;31.75;8.88;;;;;;;17.36;100.00;101382.75;5040832;28;20032;-77
2022/08/27 07:27:16;;;;;;;27.83;9.32;;;;;;;17.39;100.00;101382.47;5043061;28;20048;-77
2022/08/27 07:29:46;;;;;;;22.73;8.75;;;;;;;17.36;100.00;101378.09;5036568;28;20040;-77
2022/08/27 07:32:14;;;;;;;29.70;9.02;;;;;;;17.41;100.00;101386.84;5050196;28;20037;-77
2022/08/27 07:34:50;;;;;;;35.15;8.27;;;;;;;17.56;100.00;101387.19;5053256;28;20048;-78
2022/08/27 07:37:25;;;;;;;32.53;8.85;;;;;;;17.51;100.00;101394.19;5059370;28;20028;-77
2022/08/27 07:39:57;;;;;;;23.98;7.95;;;;;;;17.47;100.00;101387.25;5065360;28;20492;-77
2022/08/27 07:45:09;;;;;;;25.95;8.68;;;;;;;17.59;100.00;101395.19;5060824;28;20039;-78
2022/08/27 07:47:45;;;;;;;34.20;9.90;;;;;;;17.58;100.00;101389.81;5063160;28;20029;-79
2022/08/27 07:50:22;;;;;;;22.98;8.23;;;;;;;17.49;100.00;101388.81;5063657;28;20072;-78
2022/08/27 07:52:50;;;;;;;26.92;8.68;;;;;;;17.53;100.00;101397.69;5078690;28;20096;-78
2022/08/27 07:55:16;;;;;;;23.30;8.10;;;;;;;17.54;100.00;101404.97;5082174;28;20032;-80
2022/08/27 07:57:44;;;;;;;27.67;8.48;;;;;;;17.59;100.00;101394.31;5079052;28;20029;-80
2022/08/27 08:00:11;;;;;;;36.83;8.10;;;;;;;17.76;100.00;101396.25;5072266;28;20484;-78
2022/08/27 08:02:39;;;;;;;26.00;7.90;;;;;;;17.78;100.00;101399.72;5064192;28;20056;-79
2022/08/27 08:05:05;;;;;;;23.67;7.00;;;;;;;17.80;100.00;101391.25;5064752;28;20485;-78
2022/08/27 08:07:33;;;;;;;19.05;6.57;;;;;;;17.85;100.00;101407.41;5063679;28;20082;-79
2022/08/27 08:10:02;;;;;;;30.42;8.30;;;;;;;17.95;100.00;101394.41;5078738;28;20050;-78
2022/08/27 08:12:38;;;;;;;22.80;6.40;;;;;;;18.10;100.00;101405.81;5061948;28;20033;-79
2022/08/27 08:15:11;;;;;;;20.55;6.10;;;;;;;18.14;100.00;101391.50;5079042;28;20033;-77
2022/08/27 08:17:37;;;;;;;19.90;5.22;;;;;;;18.22;100.00;101400.91;5063607;28;20057;-79
2022/08/27 08:20:15;;;;;;;21.00;5.82;;;;;;;18.38;100.00;101406.59;5057528;28;20048;-79
2022/08/27 08:22:43;;;;;;;13.55;5.57;;;;;;;18.62;100.00;101410.63;5054847;28;20029;-78
2022/08/27 08:25:21;;;;;;;25.38;5.95;;;;;;;18.46;100.00;101403.03;5072582;28;20028;-78
2022/08/27 08:27:54;;;;;;;25.83;5.78;;;;;;;18.55;100.00;101408.50;5059005;28;20028;-78
2022/08/27 08:30:26;;;;;;;16.73;5.75;;;;;;;18.80;100.00;101407.84;5031423;28;20100;-79
2022/08/27 08:32:53;;;;;;;23.27;5.80;;;;;;;18.78;100.00;101396.03;5070560;28;20033;-78
2022/08/27 08:35:24;;;;;;;37.22;5.55;;;;;;;18.98;100.00;101414.22;5060402;28;20083;-77
2022/08/27 08:37:50;;;;;;;17.75;5.03;;;;;;;19.13;100.00;101413.63;5062784;28;20083;-77
2022/08/27 08:40:26;;;;;;;24.35;5.47;;;;;;;19.20;100.00;101423.94;5059182;28;20056;-77
2022/08/27 08:42:55;;;;;;;17.52;5.05;;;;;;;19.29;100.00;101420.16;5071976;28;20045;-76
2022/08/27 08:45:26;;;;;;;23.75;5.55;;;;;;;19.11;100.00;101422.13;5064210;28;20024;-76
2022/08/27 08:48:01;;;;;;;21.60;5.38;;;;;;;19.33;100.00;101403.16;5076455;28;20032;-77
2022/08/27 08:50:33;;;;;;;25.13;5.78;;;;;;;19.30;100.00;101418.25;5080598;28;20060;-77
2022/08/27 08:53:18;;;;;;;16.23;5.03;;;;;;;19.46;100.00;101418.34;5054917;28;20461;-77
2022/08/27 08:55:55;;;;;;;19.85;5.72;;;;;;;19.43;100.00;101415.91;5071760;28;20371;-75
2022/08/27 08:58:48;;;;;;;21.88;5.65;;;;;;;19.40;100.00;101416.22;5068785;28;20028;-75
2022/08/27 09:01:20;;;;;;;22.65;5.40;;;;;;;19.33;100.00;101428.16;5066876;28;20089;-76
2022/08/27 09:04:03;;;;;;;19.02;6.53;;;;;;;19.38;100.00;101429.41;5057330;28;20444;-75
2022/08/27 09:06:52;;;;;;;19.35;5.75;;;;;;;19.32;100.00;101430.06;5044264;28;20029;-75
2022/08/27 09:09:18;;;;;;;23.05;6.65;;;;;;;19.36;100.00;101427.81;5053397;28;20025;-76
2022/08/27 09:12:09;;;;;;;28.48;5.07;;;;;;;19.60;100.00;101436.28;5054654;28;20433;-76
2022/08/27 09:14:50;;;;;;;19.88;5.07;;;;;;;19.91;100.00;101437.66;5059701;28;20472;-76
2022/08/27 09:17:21;;;;;;;19.67;5.28;;;;;;;19.53;100.00;101438.00;5071304;28;20032;-77
2022/08/27 09:19:46;;;;;;;16.65;5.38;;;;;;;19.51;100.00;101426.16;5072970;28;20499;-77
2022/08/27 09:22:30;;;;;;;33.65;5.47;;;;;;;19.63;100.00;101435.09;5050603;28;20148;-76
2022/08/27 09:25:16;;;;;;;25.45;5.40;;;;;;;19.77;100.00;101436.38;5062906;28;20042;-76
2022/08/27 09:27:47;;;;;;;18.48;5.32;;;;;;;19.92;100.00;101433.81;5052800;28;20029;-75
2022/08/27 09:30:21;;;;;;;30.90;5.63;;;;;;;20.02;100.00;101435.44;5043089;28;20059;-76
2022/08/27 09:32:59;;;;;;;20.25;5.10;;;;;;;20.24;100.00;101433.03;5054288;28;20052;-77
2022/08/27 09:35:44;;;;;;;14.32;4.80;;;;;;;20.18;100.00;101436.50;5068418;28;20090;-76
2022/08/27 09:38:28;;;;;;;19.65;4.68;;;;;;;20.23;100.00;101430.44;5078663;28;20032;-76
2022/08/27 09:40:58;;;;;;;13.73;4.63;;;;;;;20.57;100.00;101431.16;5073605;28;20055;-76
2022/08/27 09:43:30;;;;;;;17.70;4.57;;;;;;;20.65;100.00;101432.25;5083116;28;20032;-77
2022/08/27 09:45:59;;;;;;;;;;;;;;;21.02;100.00;101426.16;5064610;28;20029;-77
2022/08/27 09:48:31;;;;;;;20.05;5.00;;;;;;;21.34;100.00;101427.09;5061778;28;20364;-78
2022/08/27 09:51:15;;;;;;;21.35;4.35;;;;;;;21.82;100.00;101419.66;5062807;28;20193;-77
2022/08/27 09:54:03;;;;;;;19.23;4.20;;;;;;;21.79;100.00;101411.66;5056288;28;20083;-77
2022/08/27 09:56:32;;;;;;;15.18;3.92;;;;;;;22.48;100.00;101410.00;5038835;28;20174;-76
2022/08/27 09:59:09;;;;;;;17.30;3.60;;;;;;;22.24;100.00;101420.28;5057358;28;20480;-76
2022/08/27 10:02:03;;;;;;;63.70;4.20;;;;;;;22.41;100.00;101415.47;5058732;28;20520;-77
2022/08/27 10:04:39;;;;;;;19.83;3.00;;;;;;;22.15;100.00;101399.94;5060157;28;20035;-76
2022/08/27 10:07:24;;;;;;;6.38;2.53;;;;;;;21.86;100.00;101406.22;5064229;28;20033;-76
2022/08/27 10:10:23;;;;;;;16.80;2.50;;;;;;;21.85;100.00;101413.69;5054709;28;20100;-77
2022/08/27 10:13:03;;;;;;;12.52;2.63;;;;;;;22.00;100.00;101410.97;5056913;28;20110;-79
2022/08/27 10:15:45;;;;;;;12.77;2.03;;;;;;;22.21;100.00;101407.53;5059080;28;20050;-79
2022/08/27 10:18:40;;;;;;;7.00;1.77;;;;;;;21.91;100.00;101419.59;5075374;28;20036;-78
2022/08/27 10:21:40;;;;;;;11.75;2.42;;;;;;;22.03;100.00;101405.03;5064430;28;20123;-78
2022/08/27 10:24:28;;;;;;;33.55;2.63;;;;;;;22.17;100.00;101403.41;5032680;28;20052;-78
2022/08/27 10:27:25;;;;;;;10.02;1.88;;;;;;;22.60;97.90;101405.72;5059982;28;20078;-79
2022/08/27 10:30:06;;;;;;;11.68;2.42;;;;;;;22.84;96.79;101403.75;5060836;28;20033;-79
2022/08/27 10:32:48;;;;;;;19.58;2.10;;;;;;;22.74;93.75;101401.22;5058276;28;20066;-77
2022/08/27 10:35:37;;;;;;;;;;;;;;;22.64;92.38;101395.06;5059702;28;20053;-77
2022/08/27 10:38:08;;;;;;;10.80;2.28;;;;;;;22.51;97.52;101402.16;5049627;28;19923;-76
2022/08/27 10:41:02;;;;;;;14.27;2.25;;;;;;;22.29;94.59;101395.50;5057353;28;20036;-77
2022/08/27 10:43:43;;;;;;;17.20;2.25;;;;;;;22.31;95.97;101392.53;5063052;28;20032;-78
2022/08/27 10:46:52;;;;;;;25.40;2.50;;;;;;;22.48;96.81;101396.03;5056679;28;20040;-76
2022/08/27 10:49:38;;;;;;;10.35;1.88;;;;;;;21.95;97.67;101393.94;5070059;28;20033;-78
2022/08/27 10:52:25;;;;;;;8.95;1.90;;;;;;;22.34;98.01;101390.22;5074706;28;20429;-75
2022/08/27 10:55:05;;;;;;;5.43;1.73;;;;;;;22.27;98.21;101391.13;5066443;28;20029;-77
2022/08/27 10:58:03;;;;;;;6.75;2.00;;;;;;;22.45;93.51;101388.03;5074378;28;20059;-77
2022/08/27 11:00:41;;;;;;;;;;;;;;;22.80;89.02;101392.09;5072455;28;20039;-76
2022/08/27 11:03:39;;;;;;;6.15;1.92;;;;;;;22.74;90.05;101398.44;5074656;28;19916;-76
2022/08/27 11:06:38;;;;;;;7.97;1.92;;;;;;;22.57;94.62;101386.56;5058403;28;20036;-76
2022/08/27 11:09:20;;;;;;;25.40;2.33;;;;;;;22.66;98.36;101387.34;5041640;28;20090;-77
2022/08/27 11:11:56;;;;;;;14.35;1.90;;;;;;;22.55;93.09;101389.53;5075701;28;20086;-76
2022/08/27 11:14:37;;;;;;;5.57;1.73;;;;;;;22.72;91.07;101389.41;5051442;28;20116;-78
2022/08/27 11:17:22;;;;;;;7.45;1.83;;;;;;;22.86;90.61;101385.78;5083358;28;20032;-78
2022/08/27 11:20:19;;;;;;;11.43;2.10;;;;;;;22.87;89.28;101386.63;5078339;28;20112;-77
2022/08/27 11:23:03;;;;;;;6.88;1.88;;;;;;;22.41;94.15;101383.91;5050637;28;20094;-78
2022/08/27 11:25:55;;;;;;;7.80;2.08;;;;;;;22.21;94.49;101381.56;5087876;28;20040;-77
2022/08/27 11:28:30;;;;;;;9.02;2.10;;;;;;;22.05;96.17;101379.75;5055375;28;20124;-77
2022/08/27 11:31:24;;;;;;;7.80;1.87;;;;;;;22.13;94.68;101378.84;5060472;28;20167;-77
2022/08/27 11:34:12;;;;;;;8.95;1.90;;;;;;;22.23;92.07;101379.47;5059877;28;20044;-78
2022/08/27 11:36:49;;;;;;;8.32;1.60;;;;;;;22.45;93.48;101374.09;5059643;28;20115;-76
2022/08/27 11:39:37;;;;;;;7.28;1.55;;;;;;;22.79;92.01;101381.13;5065729;28;20103;-78
2022/08/27 11:42:20;;;;;;;9.63;2.00;;;;;;;22.70;94.61;101375.63;5071928;28;20533;-76
2022/08/27 11:44:53;;;;;;;12.00;1.63;;;;;;;22.70;91.27;101380.34;5054303;28;20064;-77
2022/08/27 11:47:26;;;;;;;6.70;1.60;;;;;;;22.46;94.63;101376.69;5071520;28;20060;-77